Time,TemperatureF,DewpointF,PressureIn,WindDirection,WindDirectionDegrees,WindSpeedMPH,WindSpeedGustMPH,Humidity,HourlyPrecipIn,Conditions,Clouds,dailyrainin,SoftwareType,DateUTC
2013-07-31 00:02:00,66.0,58.0,30.20,West,267,0.0,3.0,75,0.00,,,0.00,,2013-07-31 04:02:00,
2013-07-31 00:12:00,66.0,58.0,30.20,West,267,0.0,3.0,75,0.00,,,0.00,,2013-07-31 04:12:00,
2013-07-31 00:22:00,66.0,58.0,30.20,West,273,0.0,4.0,76,0.00,,,0.00,,2013-07-31 04:22:00,
2013-07-31 00:32:00,66.0,58.0,30.20,West,273,0.0,4.0,76,0.00,,,0.00,,2013-07-31 04:32:00,
2013-07-31 00:42:00,66.0,58.0,30.20,West,273,0.0,4.0,76,0.00,,,0.00,,2013-07-31 04:42:00,
2013-07-31 00:52:00,66.0,58.0,30.20,West,273,0.0,4.0,76,0.00,,,0.00,,2013-07-31 04:52:00,
2013-07-31 01:02:00,66.0,58.0,30.21,West,265,1.0,6.0,76,0.00,,,0.00,,2013-07-31 05:02:00,
2013-07-31 01:12:00,65.0,58.0,30.20,West,271,0.0,4.0,78,0.00,,,0.00,,2013-07-31 05:12:00,
2013-07-31 01:22:00,65.0,58.0,30.20,West,271,0.0,4.0,78,0.00,,,0.00,,2013-07-31 05:22:00,
2013-07-31 01:32:00,65.0,58.0,30.20,West,275,0.0,4.0,78,0.00,,,0.00,,2013-07-31 05:32:00,
2013-07-31 01:42:00,65.0,58.0,30.20,West,275,0.0,4.0,78,0.00,,,0.00,,2013-07-31 05:42:00,
2013-07-31 01:52:00,65.0,59.0,30.20,West,275,0.0,3.0,80,0.00,,,0.00,,2013-07-31 05:52:00,
2013-07-31 02:02:00,64.0,58.0,30.20,WSW,258,0.0,3.0,81,0.00,,,0.00,,2013-07-31 06:02:00,
2013-07-31 02:12:00,64.0,58.0,30.20,WSW,258,0.0,3.0,81,0.00,,,0.00,,2013-07-31 06:12:00,
2013-07-31 02:22:00,64.0,58.0,30.20,WSW,252,0.0,2.0,82,0.00,,,0.00,,2013-07-31 06:22:00,
2013-07-31 02:32:00,63.0,58.0,30.20,WSW,252,0.0,0.0,84,0.00,,,0.00,,2013-07-31 06:32:00,
2013-07-31 02:43:00,63.0,58.0,30.20,WSW,252,0.0,0.0,84,0.00,,,0.00,,2013-07-31 06:43:00,
2013-07-31 02:53:00,62.0,57.0,30.20,WSW,252,0.0,0.0,85,0.00,,,0.00,,2013-07-31 06:53:00,
2013-07-31 03:02:00,61.0,57.0,30.19,WSW,252,0.0,0.0,87,0.00,,,0.00,,2013-07-31 07:02:00,
2013-07-31 03:12:00,61.0,57.0,30.19,WSW,252,0.0,0.0,87,0.00,,,0.00,,2013-07-31 07:12:00,
2013-07-31 03:22:00,60.0,57.0,30.20,WSW,252,0.0,0.0,89,0.00,,,0.00,,2013-07-31 07:22:00,
2013-07-31 03:32:00,60.0,57.0,30.20,WSW,252,0.0,1.0,90,0.00,,,0.00,,2013-07-31 07:32:00,
2013-07-31 03:43:00,60.0,57.0,30.20,WSW,252,0.0,1.0,90,0.00,,,0.00,,2013-07-31 07:43:00,
2013-07-31 03:52:00,60.0,57.0,30.19,WSW,252,0.0,2.0,91,0.00,,,0.00,,2013-07-31 07:52:00,
2013-07-31 04:02:00,60.0,57.0,30.19,SW,235,1.0,4.0,90,0.00,,,0.00,,2013-07-31 08:02:00,
2013-07-31 04:12:00,60.0,57.0,30.19,SW,235,1.0,4.0,90,0.00,,,0.00,,2013-07-31 08:12:00,
2013-07-31 04:22:00,60.0,57.0,30.19,SW,235,0.0,1.0,89,0.00,,,0.00,,2013-07-31 08:22:00,
2013-07-31 04:32:00,60.0,57.0,30.19,SW,235,0.0,2.0,90,0.00,,,0.00,,2013-07-31 08:32:00,
2013-07-31 04:42:00,60.0,57.0,30.19,SW,235,0.0,2.0,90,0.00,,,0.00,,2013-07-31 08:42:00,
2013-07-31 04:53:00,60.0,57.0,30.19,SW,235,0.0,5.0,90,0.00,,,0.00,,2013-07-31 08:53:00,
2013-07-31 05:02:00,60.0,57.0,30.19,SW,233,0.0,3.0,89,0.00,,,0.00,,2013-07-31 09:02:00,
2013-07-31 05:12:00,60.0,57.0,30.19,SW,233,0.0,3.0,89,0.00,,,0.00,,2013-07-31 09:12:00,
2013-07-31 05:32:00,60.0,57.0,30.19,SW,233,0.0,1.0,90,0.00,,,0.00,,2013-07-31 09:32:00,
2013-07-31 05:44:00,60.0,57.0,30.19,SW,232,0.0,4.0,89,0.00,,,0.00,,2013-07-31 09:44:00,
2013-07-31 05:52:00,60.0,56.0,30.19,SW,232,1.0,4.0,88,0.00,,,0.00,,2013-07-31 09:52:00,
2013-07-31 06:02:00,60.0,56.0,30.19,SW,232,1.0,4.0,88,0.00,,,0.00,,2013-07-31 10:02:00,
2013-07-31 06:12:00,60.0,56.0,30.19,SW,223,1.0,6.0,87,0.00,,,0.00,,2013-07-31 10:12:00,
2013-07-31 06:22:00,60.0,56.0,30.19,WSW,244,2.0,7.0,87,0.00,,,0.00,,2013-07-31 10:22:00,
2013-07-31 06:44:00,60.0,56.0,30.19,SSW,202,1.0,7.0,87,0.00,,,0.00,,2013-07-31 10:44:00,
2013-07-31 06:52:00,60.0,56.0,30.19,SW,219,2.0,6.0,87,0.00,,,0.00,,2013-07-31 10:52:00,
2013-07-31 07:03:00,60.0,56.0,30.19,SW,219,2.0,6.0,87,0.00,,,0.00,,2013-07-31 11:03:00,
2013-07-31 07:12:00,60.0,56.0,30.19,SW,219,0.0,4.0,87,0.00,,,0.00,,2013-07-31 11:12:00,
2013-07-31 07:33:00,61.0,57.0,30.19,West,267,0.0,7.0,87,0.00,,,0.00,,2013-07-31 11:33:00,
2013-07-31 07:43:00,62.0,57.0,30.20,SW,235,0.0,2.0,84,0.00,,,0.00,,2013-07-31 11:43:00,
2013-07-31 07:53:00,63.0,57.0,30.20,SW,225,2.0,8.0,81,0.00,,,0.00,,2013-07-31 11:53:00,
2013-07-31 08:03:00,64.0,57.0,30.19,WSW,248,3.0,8.0,78,0.00,,,0.00,,2013-07-31 12:03:00,
2013-07-31 08:12:00,64.0,57.0,30.19,WSW,248,3.0,8.0,78,0.00,,,0.00,,2013-07-31 12:12:00,
2013-07-31 08:22:00,64.0,57.0,30.19,SW,225,2.0,5.0,77,0.00,,,0.00,,2013-07-31 12:22:00,
2013-07-31 08:33:00,64.0,57.0,30.19,SW,225,2.0,5.0,77,0.00,,,0.00,,2013-07-31 12:33:00,
2013-07-31 08:43:00,65.0,57.0,30.19,SW,220,2.0,6.0,76,0.00,,,0.00,,2013-07-31 12:43:00,
2013-07-31 08:53:00,65.0,57.0,30.19,SW,223,1.0,5.0,75,0.00,,,0.00,,2013-07-31 12:53:00,
2013-07-31 09:02:00,65.0,57.0,30.19,SW,223,1.0,5.0,75,0.00,,,0.00,,2013-07-31 13:02:00,
2013-07-31 09:12:00,66.0,58.0,30.19,WSW,242,2.0,8.0,75,0.00,,,0.00,,2013-07-31 13:12:00,
2013-07-31 09:22:00,68.0,59.0,30.20,SE,128,0.0,5.0,73,0.00,,,0.00,,2013-07-31 13:22:00,
2013-07-31 09:33:00,68.0,59.0,30.20,SE,128,0.0,5.0,73,0.00,,,0.00,,2013-07-31 13:33:00,
2013-07-31 09:43:00,70.0,59.0,30.19,East,94,0.0,3.0,69,0.00,,,0.00,,2013-07-31 13:43:00,
2013-07-31 09:53:00,71.0,59.0,30.19,WSW,247,0.0,7.0,65,0.00,,,0.00,,2013-07-31 13:53:00,
2013-07-31 10:02:00,71.0,59.0,30.19,WSW,247,0.0,7.0,65,0.00,,,0.00,,2013-07-31 14:02:00,
2013-07-31 10:13:00,72.0,59.0,30.19,SSW,211,0.0,5.0,64,0.00,,,0.00,,2013-07-31 14:13:00,
2013-07-31 10:23:00,73.0,59.0,30.19,SSW,199,0.0,8.0,62,0.00,,,0.00,,2013-07-31 14:23:00,
2013-07-31 10:34:00,73.0,59.0,30.19,WSW,239,0.0,3.0,62,0.00,,,0.00,,2013-07-31 14:34:00,
2013-07-31 10:43:00,73.0,59.0,30.19,WSW,239,0.0,3.0,62,0.00,,,0.00,,2013-07-31 14:43:00,
2013-07-31 10:53:00,74.0,60.0,30.18,West,267,1.0,9.0,62,0.00,,,0.00,,2013-07-31 14:53:00,
2013-07-31 11:02:00,74.0,59.0,30.18,WSW,244,1.0,6.0,59,0.00,,,0.00,,2013-07-31 15:02:00,
2013-07-31 11:12:00,74.0,59.0,30.18,WSW,244,1.0,6.0,59,0.00,,,0.00,,2013-07-31 15:12:00,
2013-07-31 11:22:00,75.0,60.0,30.18,WNW,287,0.0,4.0,60,0.00,,,0.00,,2013-07-31 15:22:00,
2013-07-31 11:33:00,75.0,60.0,30.18,WNW,287,0.0,4.0,60,0.00,,,0.00,,2013-07-31 15:33:00,
2013-07-31 11:44:00,76.0,61.0,30.17,ESE,111,1.0,6.0,59,0.00,,,0.00,,2013-07-31 15:44:00,
2013-07-31 11:53:00,77.0,61.0,30.17,ESE,107,1.0,7.0,57,0.00,,,0.00,,2013-07-31 15:53:00,
2013-07-31 12:02:00,77.0,60.0,30.16,SW,236,2.0,9.0,56,0.00,,,0.00,,2013-07-31 16:02:00,
2013-07-31 12:12:00,77.0,60.0,30.16,SW,236,2.0,9.0,56,0.00,,,0.00,,2013-07-31 16:12:00,
2013-07-31 12:22:00,77.0,59.0,30.16,West,272,1.0,9.0,53,0.00,,,0.00,,2013-07-31 16:22:00,
2013-07-31 12:33:00,78.0,56.0,30.16,WSW,240,3.0,10.0,47,0.00,,,0.00,,2013-07-31 16:33:00,
2013-07-31 12:44:00,78.0,56.0,30.16,WSW,240,3.0,10.0,47,0.00,,,0.00,,2013-07-31 16:44:00,
2013-07-31 12:53:00,79.0,58.0,30.15,South,190,0.0,9.0,49,0.00,,,0.00,,2013-07-31 16:53:00,
2013-07-31 13:03:00,79.0,58.0,30.14,NW,313,2.0,10.0,48,0.00,,,0.00,,2013-07-31 17:03:00,
2013-07-31 13:13:00,79.0,58.0,30.14,NW,313,2.0,10.0,48,0.00,,,0.00,,2013-07-31 17:13:00,
2013-07-31 13:22:00,80.0,57.0,30.14,NW,306,0.0,4.0,46,0.00,,,0.00,,2013-07-31 17:22:00,
2013-07-31 13:33:00,80.0,57.0,30.14,NW,306,0.0,4.0,46,0.00,,,0.00,,2013-07-31 17:33:00,
2013-07-31 13:43:00,80.0,58.0,30.13,SSE,152,0.0,5.0,47,0.00,,,0.00,,2013-07-31 17:43:00,
2013-07-31 13:53:00,79.0,57.0,30.13,WSW,250,1.0,4.0,47,0.00,,,0.00,,2013-07-31 17:53:00,
2013-07-31 14:02:00,80.0,57.0,30.12,ESE,103,1.0,8.0,46,0.00,,,0.00,,2013-07-31 18:02:00,
2013-07-31 14:13:00,80.0,57.0,30.12,ESE,103,1.0,8.0,46,0.00,,,0.00,,2013-07-31 18:13:00,
2013-07-31 14:23:00,80.0,57.0,30.11,ESE,105,1.0,8.0,45,0.00,,,0.00,,2013-07-31 18:23:00,
2013-07-31 14:33:00,80.0,57.0,30.11,South,178,1.0,6.0,46,0.00,,,0.00,,2013-07-31 18:33:00,
2013-07-31 14:43:00,80.0,57.0,30.11,South,178,1.0,6.0,46,0.00,,,0.00,,2013-07-31 18:43:00,
2013-07-31 14:52:00,80.0,57.0,30.10,WSW,258,1.0,5.0,46,0.00,,,0.00,,2013-07-31 18:52:00,
2013-07-31 15:03:00,80.0,57.0,30.10,WSW,258,1.0,5.0,46,0.00,,,0.00,,2013-07-31 19:03:00,
2013-07-31 15:12:00,81.0,58.0,30.10,SW,231,1.0,6.0,45,0.00,,,0.00,,2013-07-31 19:12:00,
2013-07-31 15:23:00,80.0,57.0,30.09,SW,218,0.0,6.0,45,0.00,,,0.00,,2013-07-31 19:23:00,
2013-07-31 15:33:00,80.0,57.0,30.09,SW,218,0.0,6.0,45,0.00,,,0.00,,2013-07-31 19:33:00,
2013-07-31 15:43:00,79.0,57.0,30.09,SW,220,1.0,7.0,47,0.00,,,0.00,,2013-07-31 19:43:00,
2013-07-31 15:53:00,81.0,58.0,30.09,East,84,1.0,9.0,46,0.00,,,0.00,,2013-07-31 19:53:00,
2013-07-31 16:03:00,80.0,63.0,30.08,NW,313,0.0,4.0,56,0.00,,,0.00,,2013-07-31 20:03:00,
2013-07-31 16:12:00,80.0,63.0,30.08,NW,313,0.0,4.0,56,0.00,,,0.00,,2013-07-31 20:12:00,
2013-07-31 16:23:00,79.0,64.0,30.08,NNE,25,1.0,3.0,61,0.00,,,0.00,,2013-07-31 20:23:00,
2013-07-31 16:43:00,78.0,65.0,30.07,NNE,25,0.0,1.0,64,0.00,,,0.00,,2013-07-31 20:43:00,
2013-07-31 16:53:00,78.0,64.0,30.07,NE,55,0.0,4.0,62,0.00,,,0.00,,2013-07-31 20:53:00,
2013-07-31 17:03:00,79.0,64.0,30.06,NE,51,1.0,4.0,61,0.00,,,0.00,,2013-07-31 21:03:00,
2013-07-31 17:13:00,79.0,64.0,30.06,NE,51,1.0,4.0,61,0.00,,,0.00,,2013-07-31 21:13:00,
2013-07-31 17:22:00,79.0,64.0,30.06,NNE,31,0.0,3.0,60,0.00,,,0.00,,2013-07-31 21:22:00,
2013-07-31 17:43:00,78.0,64.0,30.05,NNE,32,0.0,3.0,62,0.00,,,0.00,,2013-07-31 21:43:00,
2013-07-31 17:53:00,78.0,66.0,30.05,NNE,32,0.0,1.0,66,0.00,,,0.00,,2013-07-31 21:53:00,
2013-07-31 18:02:00,77.0,65.0,30.05,NNE,32,0.0,1.0,67,0.00,,,0.00,,2013-07-31 22:02:00,
2013-07-31 18:13:00,77.0,65.0,30.05,NNE,32,0.0,1.0,67,0.00,,,0.00,,2013-07-31 22:13:00,
2013-07-31 18:22:00,77.0,66.0,30.05,WNW,294,1.0,3.0,69,0.00,,,0.00,,2013-07-31 22:22:00,
2013-07-31 18:33:00,77.0,66.0,30.05,WNW,294,1.0,3.0,69,0.00,,,0.00,,2013-07-31 22:33:00,
2013-07-31 18:43:00,76.0,65.0,30.05,NW,309,0.0,1.0,69,0.00,,,0.00,,2013-07-31 22:43:00,
2013-07-31 18:53:00,76.0,66.0,30.04,NW,309,0.0,1.0,71,0.00,,,0.00,,2013-07-31 22:53:00,
2013-07-31 19:02:00,76.0,66.0,30.04,NW,309,0.0,0.0,71,0.00,,,0.00,,2013-07-31 23:02:00,
2013-07-31 19:12:00,76.0,66.0,30.04,NW,309,0.0,0.0,71,0.00,,,0.00,,2013-07-31 23:12:00,
2013-07-31 19:22:00,76.0,66.0,30.04,NW,309,0.0,0.0,71,0.00,,,0.00,,2013-07-31 23:22:00,
2013-07-31 19:32:00,74.0,66.0,30.03,NW,310,0.0,1.0,75,0.00,,,0.00,,2013-07-31 23:32:00,
2013-07-31 19:42:00,74.0,66.0,30.03,NW,310,0.0,1.0,75,0.00,,,0.00,,2013-07-31 23:42:00,
2013-07-31 19:53:00,74.0,66.0,30.02,NW,310,0.0,1.0,77,0.00,,,0.00,,2013-07-31 23:53:00,
2013-07-31 20:03:00,73.0,66.0,30.02,NW,310,0.0,1.0,79,0.00,,,0.00,,2013-08-01 00:03:00,
2013-07-31 20:12:00,73.0,66.0,30.02,NW,310,0.0,1.0,79,0.00,,,0.00,,2013-08-01 00:12:00,
2013-07-31 20:22:00,73.0,66.0,30.02,NW,310,0.0,0.0,80,0.00,,,0.00,,2013-08-01 00:22:00,
2013-07-31 20:32:00,72.0,66.0,30.01,NW,310,0.0,0.0,82,0.00,,,0.00,,2013-08-01 00:32:00,
2013-07-31 20:43:00,72.0,66.0,30.01,NW,310,0.0,0.0,82,0.00,,,0.00,,2013-08-01 00:43:00,
2013-07-31 20:52:00,71.0,66.0,30.02,NW,310,0.0,0.0,83,0.00,,,0.00,,2013-08-01 00:52:00,
2013-07-31 21:03:00,71.0,66.0,30.01,NW,310,0.0,0.0,85,0.00,,,0.00,,2013-08-01 01:03:00,
2013-07-31 21:12:00,71.0,66.0,30.01,NW,310,0.0,0.0,85,0.00,,,0.00,,2013-08-01 01:12:00,
2013-07-31 21:22:00,71.0,67.0,30.01,NW,310,0.0,1.0,86,0.00,,,0.00,,2013-08-01 01:22:00,
2013-07-31 21:33:00,70.0,66.0,30.01,NW,310,0.0,3.0,86,0.00,,,0.00,,2013-08-01 01:33:00,
2013-07-31 21:43:00,70.0,66.0,30.01,NW,310,0.0,3.0,86,0.00,,,0.00,,2013-08-01 01:43:00,
2013-07-31 21:53:00,70.0,66.0,30.01,NW,310,0.0,0.0,88,0.00,,,0.00,,2013-08-01 01:53:00,
2013-07-31 22:02:00,70.0,66.0,30.01,NW,310,0.0,0.0,88,0.00,,,0.00,,2013-08-01 02:02:00,
2013-07-31 22:12:00,70.0,67.0,30.01,NW,310,0.0,0.0,89,0.00,,,0.00,,2013-08-01 02:12:00,
2013-07-31 22:32:00,70.0,67.0,30.01,NW,310,0.0,2.0,90,0.00,,,0.00,,2013-08-01 02:32:00,
2013-07-31 23:12:00,70.0,67.0,30.00,NW,310,0.0,0.0,91,0.00,,,0.00,,2013-08-01 03:12:00,
2013-07-31 23:22:00,69.0,67.0,29.99,NW,310,0.0,0.0,92,0.00,,,0.00,,2013-08-01 03:22:00,
2013-07-31 23:32:00,69.0,67.0,29.99,NW,310,0.0,0.0,92,0.00,,,0.00,,2013-08-01 03:32:00,
2013-07-31 23:43:00,69.0,67.0,29.99,NW,310,0.0,0.0,92,0.00,,,0.00,,2013-08-01 03:43:00,
2013-07-31 23:53:00,69.0,67.0,29.98,NW,310,0.0,0.0,92,0.00,,,0.00,,2013-08-01 03:53:00,